sensor_id;sensor_type;location;lat;lon;timestamp;pressure;altitude;pressure_sealevel;temperature;humidity
75045;BME280;63614;56.026;35.960;2022-12-18T00:00:53;98950.31;;;-5.09;80.61
75045;BME280;63614;56.026;35.960;2022-12-18T00:03:19;98941.69;;;-5.19;80.89
75045;BME280;63614;56.026;35.960;2022-12-18T00:05:49;98940.25;;;-5.23;81.00
75045;BME280;63614;56.026;35.960;2022-12-18T00:08:15;98948.28;;;-5.17;80.77
75045;BME280;63614;56.026;35.960;2022-12-18T00:10:41;98946.56;;;-5.16;80.26
75045;BME280;63614;56.026;35.960;2022-12-18T00:13:07;98944.22;;;-5.19;80.96
75045;BME280;63614;56.026;35.960;2022-12-18T00:15:34;98937.00;;;-5.25;80.55
75045;BME280;63614;56.026;35.960;2022-12-18T00:18:00;98941.59;;;-5.18;80.78
75045;BME280;63614;56.026;35.960;2022-12-18T00:20:26;98937.41;;;-5.19;80.17
75045;BME280;63614;56.026;35.960;2022-12-18T00:22:53;98932.72;;;-5.25;80.46
75045;BME280;63614;56.026;35.960;2022-12-18T00:25:19;98928.81;;;-5.16;80.26
75045;BME280;63614;56.026;35.960;2022-12-18T00:27:45;98916.22;;;-5.31;80.45
75045;BME280;63614;56.026;35.960;2022-12-18T00:30:11;98929.28;;;-5.37;80.35
75045;BME280;63614;56.026;35.960;2022-12-18T00:32:38;98917.50;;;-5.38;81.42
75045;BME280;63614;56.026;35.960;2022-12-18T00:35:05;98923.03;;;-5.18;80.28
75045;BME280;63614;56.026;35.960;2022-12-18T00:37:33;98905.78;;;-5.26;80.53
75045;BME280;63614;56.026;35.960;2022-12-18T00:39:59;98901.91;;;-5.32;80.45
75045;BME280;63614;56.026;35.960;2022-12-18T00:42:24;98910.00;;;-5.39;80.53
75045;BME280;63614;56.026;35.960;2022-12-18T00:45:09;98901.25;;;-5.48;80.81
75045;BME280;63614;56.026;35.960;2022-12-18T00:47:34;98889.63;;;-5.38;81.16
75045;BME280;63614;56.026;35.960;2022-12-18T00:50:00;98922.56;;;-5.38;80.07
75045;BME280;63614;56.026;35.960;2022-12-18T00:52:26;98896.94;;;-5.33;80.14
75045;BME280;63614;56.026;35.960;2022-12-18T00:54:52;98905.16;;;-5.30;80.33
75045;BME280;63614;56.026;35.960;2022-12-18T00:57:17;98899.94;;;-5.41;80.00
75045;BME280;63614;56.026;35.960;2022-12-18T00:59:43;98900.59;;;-5.37;80.57
75045;BME280;63614;56.026;35.960;2022-12-18T01:02:10;98886.59;;;-5.30;79.95
75045;BME280;63614;56.026;35.960;2022-12-18T01:04:38;98896.53;;;-5.27;79.93
75045;BME280;63614;56.026;35.960;2022-12-18T01:07:04;98894.50;;;-5.35;79.61
75045;BME280;63614;56.026;35.960;2022-12-18T01:09:30;98882.09;;;-5.39;80.05
75045;BME280;63614;56.026;35.960;2022-12-18T01:11:55;98882.72;;;-5.49;79.66
75045;BME280;63614;56.026;35.960;2022-12-18T01:14:22;98894.38;;;-5.46;79.74
75045;BME280;63614;56.026;35.960;2022-12-18T01:16:47;98895.28;;;-5.47;79.21
75045;BME280;63614;56.026;35.960;2022-12-18T01:19:13;98887.25;;;-5.54;79.91
75045;BME280;63614;56.026;35.960;2022-12-18T01:21:39;98881.38;;;-5.54;80.23
75045;BME280;63614;56.026;35.960;2022-12-18T01:24:06;98895.03;;;-5.57;80.18
75045;BME280;63614;56.026;35.960;2022-12-18T01:26:32;98865.84;;;-5.62;80.64
75045;BME280;63614;56.026;35.960;2022-12-18T01:28:58;98886.16;;;-5.50;79.97
75045;BME280;63614;56.026;35.960;2022-12-18T01:31:27;98878.84;;;-5.54;80.29
75045;BME280;63614;56.026;35.960;2022-12-18T01:33:54;98886.75;;;-5.46;80.30
75045;BME280;63614;56.026;35.960;2022-12-18T01:36:29;98894.66;;;-5.51;79.67
75045;BME280;63614;56.026;35.960;2022-12-18T01:38:56;98891.59;;;-5.56;79.74
75045;BME280;63614;56.026;35.960;2022-12-18T01:41:28;98903.69;;;-5.47;79.82
75045;BME280;63614;56.026;35.960;2022-12-18T01:47:36;98892.75;;;-5.47;79.63
75045;BME280;63614;56.026;35.960;2022-12-18T01:52:43;98899.81;;;-5.52;79.51
75045;BME280;63614;56.026;35.960;2022-12-18T01:55:12;98906.72;;;-5.54;79.50
75045;BME280;63614;56.026;35.960;2022-12-18T01:57:40;98901.22;;;-5.61;79.82
75045;BME280;63614;56.026;35.960;2022-12-18T02:00:12;98900.72;;;-5.66;79.82
75045;BME280;63614;56.026;35.960;2022-12-18T02:02:43;98898.09;;;-5.64;80.00
75045;BME280;63614;56.026;35.960;2022-12-18T02:05:13;98890.47;;;-5.64;80.41
75045;BME280;63614;56.026;35.960;2022-12-18T02:11:14;98894.03;;;-5.54;80.21
75045;BME280;63614;56.026;35.960;2022-12-18T02:14:15;98895.44;;;-5.63;80.63
75045;BME280;63614;56.026;35.960;2022-12-18T02:16:51;98908.25;;;-5.79;80.60
75045;BME280;63614;56.026;35.960;2022-12-18T02:19:37;98890.72;;;-5.82;81.26
75045;BME280;63614;56.026;35.960;2022-12-18T02:22:33;98890.09;;;-5.86;80.70
75045;BME280;63614;56.026;35.960;2022-12-18T02:27:46;98896.69;;;-5.83;80.60
75045;BME280;63614;56.026;35.960;2022-12-18T02:30:15;98903.09;;;-5.77;80.88
75045;BME280;63614;56.026;35.960;2022-12-18T02:32:44;98909.88;;;-5.78;80.36
75045;BME280;63614;56.026;35.960;2022-12-18T02:35:17;98911.28;;;-5.87;80.20
75045;BME280;63614;56.026;35.960;2022-12-18T02:37:49;98911.06;;;-5.96;80.78
75045;BME280;63614;56.026;35.960;2022-12-18T02:40:17;98912.16;;;-5.88;80.75
75045;BME280;63614;56.026;35.960;2022-12-18T02:42:43;98910.75;;;-5.92;80.80
75045;BME280;63614;56.026;35.960;2022-12-18T02:45:13;98905.00;;;-6.08;80.64
75045;BME280;63614;56.026;35.960;2022-12-18T02:47:42;98918.25;;;-5.90;80.81
75045;BME280;63614;56.026;35.960;2022-12-18T02:50:34;98910.94;;;-5.95;81.03
75045;BME280;63614;56.026;35.960;2022-12-18T03:01:26;98918.69;;;-6.11;80.98
75045;BME280;63614;56.026;35.960;2022-12-18T03:04:17;98920.94;;;-6.06;81.20
75045;BME280;63614;56.026;35.960;2022-12-18T03:06:48;98927.34;;;-6.15;80.64
75045;BME280;63614;56.026;35.960;2022-12-18T03:09:20;98931.34;;;-6.11;81.03
75045;BME280;63614;56.026;35.960;2022-12-18T03:11:53;98917.41;;;-6.18;80.93
75045;BME280;63614;56.026;35.960;2022-12-18T03:14:40;98913.81;;;-6.14;81.24
75045;BME280;63614;56.026;35.960;2022-12-18T03:17:11;98906.22;;;-6.28;81.02
75045;BME280;63614;56.026;35.960;2022-12-18T03:19:40;98914.97;;;-6.19;81.32
75045;BME280;63614;56.026;35.960;2022-12-18T03:22:09;98915.91;;;-6.35;81.12
75045;BME280;63614;56.026;35.960;2022-12-18T03:24:45;98917.31;;;-6.16;81.07
75045;BME280;63614;56.026;35.960;2022-12-18T03:27:14;98940.09;;;-6.16;80.57
75045;BME280;63614;56.026;35.960;2022-12-18T03:29:49;98929.00;;;-6.14;80.84
75045;BME280;63614;56.026;35.960;2022-12-18T03:32:29;98936.88;;;-6.18;81.00
75045;BME280;63614;56.026;35.960;2022-12-18T03:35:01;98925.53;;;-6.13;80.61
75045;BME280;63614;56.026;35.960;2022-12-18T03:37:32;98936.25;;;-6.22;80.63
75045;BME280;63614;56.026;35.960;2022-12-18T03:39:59;98934.41;;;-6.20;80.38
75045;BME280;63614;56.026;35.960;2022-12-18T03:42:28;98947.09;;;-6.20;80.23
75045;BME280;63614;56.026;35.960;2022-12-18T03:45:09;98946.81;;;-6.15;80.56
75045;BME280;63614;56.026;35.960;2022-12-18T03:48:08;98962.53;;;-6.25;80.49
75045;BME280;63614;56.026;35.960;2022-12-18T03:55:50;98957.28;;;-6.22;80.85
75045;BME280;63614;56.026;35.960;2022-12-18T03:58:20;98962.63;;;-6.26;80.45
75045;BME280;63614;56.026;35.960;2022-12-18T04:01:01;98967.34;;;-6.20;80.99
75045;BME280;63614;56.026;35.960;2022-12-18T04:03:29;98976.75;;;-6.22;80.93
75045;BME280;63614;56.026;35.960;2022-12-18T04:05:59;98955.03;;;-6.26;80.94
75045;BME280;63614;56.026;35.960;2022-12-18T04:08:27;98958.19;;;-6.23;80.77
75045;BME280;63614;56.026;35.960;2022-12-18T04:11:03;98965.25;;;-6.28;80.89
75045;BME280;63614;56.026;35.960;2022-12-18T04:13:32;98985.69;;;-6.31;80.97
75045;BME280;63614;56.026;35.960;2022-12-18T04:16:01;98978.19;;;-6.32;81.00
75045;BME280;63614;56.026;35.960;2022-12-18T04:18:27;98982.78;;;-6.25;80.89
75045;BME280;63614;56.026;35.960;2022-12-18T04:20:53;98976.75;;;-6.22;80.82
75045;BME280;63614;56.026;35.960;2022-12-18T04:23:19;98978.78;;;-6.14;80.85
75045;BME280;63614;56.026;35.960;2022-12-18T04:25:46;98984.13;;;-6.19;80.42
75045;BME280;63614;56.026;35.960;2022-12-18T04:28:20;98977.19;;;-6.30;80.60
75045;BME280;63614;56.026;35.960;2022-12-18T04:30:48;98983.84;;;-6.29;80.55
75045;BME280;63614;56.026;35.960;2022-12-18T04:33:17;98982.69;;;-6.23;80.44
75045;BME280;63614;56.026;35.960;2022-12-18T04:35:43;98982.25;;;-6.30;80.95
75045;BME280;63614;56.026;35.960;2022-12-18T04:38:09;98993.00;;;-6.26;80.18
75045;BME280;63614;56.026;35.960;2022-12-18T04:40:38;98998.41;;;-6.18;80.27
75045;BME280;63614;56.026;35.960;2022-12-18T04:43:10;99006.09;;;-6.19;80.15
75045;BME280;63614;56.026;35.960;2022-12-18T04:45:36;98996.44;;;-6.27;80.04
75045;BME280;63614;56.026;35.960;2022-12-18T04:48:03;99013.53;;;-6.16;79.65
75045;BME280;63614;56.026;35.960;2022-12-18T04:50:29;99020.94;;;-6.13;79.71
75045;BME280;63614;56.026;35.960;2022-12-18T04:52:55;99017.03;;;-6.19;79.63
75045;BME280;63614;56.026;35.960;2022-12-18T04:55:21;99013.97;;;-6.10;79.84
75045;BME280;63614;56.026;35.960;2022-12-18T04:57:47;99003.03;;;-6.25;79.51
75045;BME280;63614;56.026;35.960;2022-12-18T05:00:13;99001.22;;;-6.23;79.73
75045;BME280;63614;56.026;35.960;2022-12-18T05:02:39;98999.97;;;-6.15;79.88
75045;BME280;63614;56.026;35.960;2022-12-18T05:05:05;98994.25;;;-6.19;79.98
75045;BME280;63614;56.026;35.960;2022-12-18T05:07:31;98998.41;;;-6.32;80.30
75045;BME280;63614;56.026;35.960;2022-12-18T05:09:56;99016.13;;;-6.18;80.01
75045;BME280;63614;56.026;35.960;2022-12-18T05:12:23;99027.81;;;-6.30;80.50
75045;BME280;63614;56.026;35.960;2022-12-18T05:14:49;99032.53;;;-6.24;80.97
75045;BME280;63614;56.026;35.960;2022-12-18T05:17:14;99031.06;;;-6.13;80.56
75045;BME280;63614;56.026;35.960;2022-12-18T05:19:40;99031.59;;;-6.23;80.49
75045;BME280;63614;56.026;35.960;2022-12-18T05:22:06;99034.13;;;-6.23;80.13
75045;BME280;63614;56.026;35.960;2022-12-18T05:24:32;99043.63;;;-6.12;79.92
75045;BME280;63614;56.026;35.960;2022-12-18T05:26:58;99039.09;;;-6.07;80.20
75045;BME280;63614;56.026;35.960;2022-12-18T05:29:23;99031.06;;;-6.13;79.50
75045;BME280;63614;56.026;35.960;2022-12-18T05:31:49;99042.38;;;-6.05;79.90
75045;BME280;63614;56.026;35.960;2022-12-18T05:34:15;99054.91;;;-6.03;79.66
75045;BME280;63614;56.026;35.960;2022-12-18T05:36:41;99049.22;;;-6.07;79.57
75045;BME280;63614;56.026;35.960;2022-12-18T05:39:07;99048.44;;;-6.07;79.60
75045;BME280;63614;56.026;35.960;2022-12-18T05:41:32;99043.38;;;-6.07;79.84
75045;BME280;63614;56.026;35.960;2022-12-18T05:43:58;99039.94;;;-6.06;79.47
75045;BME280;63614;56.026;35.960;2022-12-18T05:46:24;99038.38;;;-6.09;79.79
75045;BME280;63614;56.026;35.960;2022-12-18T05:48:51;99054.66;;;-6.13;80.09
75045;BME280;63614;56.026;35.960;2022-12-18T05:51:19;99053.31;;;-6.04;80.05
75045;BME280;63614;56.026;35.960;2022-12-18T05:53:46;99046.34;;;-6.15;79.86
75045;BME280;63614;56.026;35.960;2022-12-18T05:56:18;99052.38;;;-6.17;80.23
75045;BME280;63614;56.026;35.960;2022-12-18T05:58:45;99054.38;;;-6.08;80.21
75045;BME280;63614;56.026;35.960;2022-12-18T06:01:13;99065.44;;;-6.09;80.13
75045;BME280;63614;56.026;35.960;2022-12-18T06:03:39;99064.88;;;-6.14;80.29
75045;BME280;63614;56.026;35.960;2022-12-18T06:06:16;99079.09;;;-5.97;80.14
75045;BME280;63614;56.026;35.960;2022-12-18T06:08:42;99081.50;;;-5.96;79.98
75045;BME280;63614;56.026;35.960;2022-12-18T06:11:08;99087.56;;;-5.98;79.89
75045;BME280;63614;56.026;35.960;2022-12-18T06:13:34;99090.72;;;-5.95;80.39
75045;BME280;63614;56.026;35.960;2022-12-18T06:16:02;99104.66;;;-5.88;80.21
75045;BME280;63614;56.026;35.960;2022-12-18T06:18:28;99109.09;;;-5.91;79.68
75045;BME280;63614;56.026;35.960;2022-12-18T06:20:55;99097.63;;;-5.97;80.53
75045;BME280;63614;56.026;35.960;2022-12-18T06:23:21;99105.09;;;-5.95;80.31
75045;BME280;63614;56.026;35.960;2022-12-18T06:25:47;99101.41;;;-5.90;80.32
75045;BME280;63614;56.026;35.960;2022-12-18T06:28:13;99104.38;;;-5.83;80.33
75045;BME280;63614;56.026;35.960;2022-12-18T06:30:39;99105.28;;;-5.84;80.52
75045;BME280;63614;56.026;35.960;2022-12-18T06:33:04;99106.13;;;-5.84;80.14
75045;BME280;63614;56.026;35.960;2022-12-18T06:35:31;99114.44;;;-5.81;80.24
75045;BME280;63614;56.026;35.960;2022-12-18T06:37:57;99114.25;;;-5.78;80.54
75045;BME280;63614;56.026;35.960;2022-12-18T06:40:23;99117.22;;;-5.86;80.13
75045;BME280;63614;56.026;35.960;2022-12-18T06:42:49;99123.47;;;-5.77;80.69
75045;BME280;63614;56.026;35.960;2022-12-18T06:45:14;99124.28;;;-5.77;80.22
75045;BME280;63614;56.026;35.960;2022-12-18T06:47:41;99133.22;;;-5.71;80.54
75045;BME280;63614;56.026;35.960;2022-12-18T06:50:06;99145.28;;;-5.60;80.33
75045;BME280;63614;56.026;35.960;2022-12-18T06:52:33;99147.00;;;-5.61;79.92
75045;BME280;63614;56.026;35.960;2022-12-18T06:54:59;99142.75;;;-5.60;80.27
75045;BME280;63614;56.026;35.960;2022-12-18T06:57:25;99169.63;;;-5.58;80.16
75045;BME280;63614;56.026;35.960;2022-12-18T06:59:51;99166.09;;;-5.55;80.30
75045;BME280;63614;56.026;35.960;2022-12-18T07:02:17;99170.53;;;-5.59;80.58
75045;BME280;63614;56.026;35.960;2022-12-18T07:04:43;99176.97;;;-5.53;80.29
75045;BME280;63614;56.026;35.960;2022-12-18T07:07:08;99176.13;;;-5.54;79.92
75045;BME280;63614;56.026;35.960;2022-12-18T07:09:34;99181.03;;;-5.51;80.59
75045;BME280;63614;56.026;35.960;2022-12-18T07:12:00;99191.91;;;-5.49;80.81
75045;BME280;63614;56.026;35.960;2022-12-18T07:14:26;99194.97;;;-5.43;80.64
75045;BME280;63614;56.026;35.960;2022-12-18T07:16:52;99198.94;;;-5.39;80.74
75045;BME280;63614;56.026;35.960;2022-12-18T07:19:17;99191.44;;;-5.41;80.97
75045;BME280;63614;56.026;35.960;2022-12-18T07:21:43;99184.84;;;-5.43;81.04
75045;BME280;63614;56.026;35.960;2022-12-18T07:24:09;99190.44;;;-5.38;81.17
75045;BME280;63614;56.026;35.960;2022-12-18T07:26:34;99188.16;;;-5.29;80.77
75045;BME280;63614;56.026;35.960;2022-12-18T07:29:00;99186.19;;;-5.38;81.12
75045;BME280;63614;56.026;35.960;2022-12-18T07:31:26;99169.91;;;-5.34;80.94
75045;BME280;63614;56.026;35.960;2022-12-18T07:33:52;99178.66;;;-5.25;80.65
75045;BME280;63614;56.026;35.960;2022-12-18T07:36:18;99187.38;;;-5.29;80.92
75045;BME280;63614;56.026;35.960;2022-12-18T07:38:46;99180.13;;;-5.21;80.79
75045;BME280;63614;56.026;35.960;2022-12-18T07:41:13;99188.91;;;-5.26;80.58
75045;BME280;63614;56.026;35.960;2022-12-18T07:43:40;99197.41;;;-5.27;80.67
75045;BME280;63614;56.026;35.960;2022-12-18T07:46:07;99201.38;;;-5.23;80.42
75045;BME280;63614;56.026;35.960;2022-12-18T07:48:33;99224.13;;;-5.22;80.56
75045;BME280;63614;56.026;35.960;2022-12-18T07:51:00;99227.84;;;-5.13;80.55
75045;BME280;63614;56.026;35.960;2022-12-18T07:53:27;99236.44;;;-5.16;80.23
75045;BME280;63614;56.026;35.960;2022-12-18T07:56:00;99231.91;;;-5.11;79.83
75045;BME280;63614;56.026;35.960;2022-12-18T07:58:28;99239.31;;;-5.07;80.03
75045;BME280;63614;56.026;35.960;2022-12-18T08:01:01;99246.66;;;-5.17;80.30
75045;BME280;63614;56.026;35.960;2022-12-18T08:03:27;99249.03;;;-5.14;79.59
75045;BME280;63614;56.026;35.960;2022-12-18T08:05:58;99243.69;;;-5.09;80.09
75045;BME280;63614;56.026;35.960;2022-12-18T08:08:24;99249.09;;;-5.01;80.24
75045;BME280;63614;56.026;35.960;2022-12-18T08:10:49;99261.16;;;-5.05;80.54
75045;BME280;63614;56.026;35.960;2022-12-18T08:13:15;99250.94;;;-5.18;79.95
75045;BME280;63614;56.026;35.960;2022-12-18T08:15:41;99261.16;;;-5.05;80.02
75045;BME280;63614;56.026;35.960;2022-12-18T08:18:06;99266.41;;;-5.08;80.33
75045;BME280;63614;56.026;35.960;2022-12-18T08:20:32;99275.47;;;-5.04;79.74
75045;BME280;63614;56.026;35.960;2022-12-18T08:22:58;99269.97;;;-4.96;80.36
75045;BME280;63614;56.026;35.960;2022-12-18T08:25:23;99273.13;;;-5.07;80.11
75045;BME280;63614;56.026;35.960;2022-12-18T08:27:49;99264.50;;;-4.90;80.00
75045;BME280;63614;56.026;35.960;2022-12-18T08:30:15;99275.47;;;-4.75;79.87
75045;BME280;63614;56.026;35.960;2022-12-18T08:32:40;99281.78;;;-4.82;80.03
75045;BME280;63614;56.026;35.960;2022-12-18T08:35:06;99280.63;;;-4.77;80.02
75045;BME280;63614;56.026;35.960;2022-12-18T08:37:33;99272.47;;;-4.82;80.22
75045;BME280;63614;56.026;35.960;2022-12-18T08:40:00;99301.28;;;-4.83;80.55
75045;BME280;63614;56.026;35.960;2022-12-18T08:42:25;99299.91;;;-4.74;80.38
75045;BME280;63614;56.026;35.960;2022-12-18T08:45:10;99322.66;;;-4.72;80.62
75045;BME280;63614;56.026;35.960;2022-12-18T08:47:36;99322.22;;;-4.79;80.07
75045;BME280;63614;56.026;35.960;2022-12-18T08:50:01;99331.03;;;-4.85;80.94
75045;BME280;63614;56.026;35.960;2022-12-18T08:52:31;99320.13;;;-4.87;81.33
75045;BME280;63614;56.026;35.960;2022-12-18T08:54:57;99317.41;;;-4.98;80.45
75045;BME280;63614;56.026;35.960;2022-12-18T08:57:23;99317.31;;;-4.97;80.74
75045;BME280;63614;56.026;35.960;2022-12-18T08:59:49;99326.56;;;-4.96;80.73
75045;BME280;63614;56.026;35.960;2022-12-18T09:02:15;99326.84;;;-5.00;80.73
75045;BME280;63614;56.026;35.960;2022-12-18T09:04:40;99343.53;;;-4.96;80.87
75045;BME280;63614;56.026;35.960;2022-12-18T09:07:06;99337.88;;;-5.01;80.52
75045;BME280;63614;56.026;35.960;2022-12-18T09:09:32;99337.88;;;-5.01;80.62
75045;BME280;63614;56.026;35.960;2022-12-18T09:11:58;99335.16;;;-4.98;80.79
75045;BME280;63614;56.026;35.960;2022-12-18T09:14:24;99343.88;;;-5.02;80.75
75045;BME280;63614;56.026;35.960;2022-12-18T09:16:49;99353.28;;;-5.04;80.34
75045;BME280;63614;56.026;35.960;2022-12-18T09:19:16;99349.75;;;-5.02;80.51
75045;BME280;63614;56.026;35.960;2022-12-18T09:21:41;99342.06;;;-5.00;80.52
75045;BME280;63614;56.026;35.960;2022-12-18T09:24:11;99351.09;;;-5.11;81.32
75045;BME280;63614;56.026;35.960;2022-12-18T09:26:37;99349.41;;;-4.96;80.61
75045;BME280;63614;56.026;35.960;2022-12-18T09:29:03;99363.31;;;-5.03;80.39
75045;BME280;63614;56.026;35.960;2022-12-18T09:31:29;99361.16;;;-4.95;80.43
75045;BME280;63614;56.026;35.960;2022-12-18T09:33:56;99382.75;;;-4.87;79.87
75045;BME280;63614;56.026;35.960;2022-12-18T09:36:22;99376.13;;;-4.90;79.99
75045;BME280;63614;56.026;35.960;2022-12-18T09:38:48;99387.00;;;-4.88;79.82
75045;BME280;63614;56.026;35.960;2022-12-18T09:41:39;99400.97;;;-4.81;79.75
75045;BME280;63614;56.026;35.960;2022-12-18T09:44:15;99390.34;;;-4.87;79.94
75045;BME280;63614;56.026;35.960;2022-12-18T09:47:30;99380.28;;;-4.89;80.61
75045;BME280;63614;56.026;35.960;2022-12-18T09:49:35;99392.00;;;-4.86;79.60
75045;BME280;63614;56.026;35.960;2022-12-18T09:52:09;99406.97;;;-4.82;79.76
75045;BME280;63614;56.026;35.960;2022-12-18T09:54:41;99414.66;;;-4.83;79.92
75045;BME280;63614;56.026;35.960;2022-12-18T09:57:14;99412.84;;;-4.81;79.30
75045;BME280;63614;56.026;35.960;2022-12-18T09:59:41;99405.22;;;-4.67;79.11
75045;BME280;63614;56.026;35.960;2022-12-18T10:02:23;99408.03;;;-4.57;78.66
75045;BME280;63614;56.026;35.960;2022-12-18T10:05:20;99413.84;;;-4.55;79.16
75045;BME280;63614;56.026;35.960;2022-12-18T10:11:01;99421.81;;;-4.61;78.65
75045;BME280;63614;56.026;35.960;2022-12-18T10:18:42;99427.28;;;-4.67;79.11
75045;BME280;63614;56.026;35.960;2022-12-18T10:21:20;99426.00;;;-4.60;79.26
75045;BME280;63614;56.026;35.960;2022-12-18T10:26:22;99421.19;;;-4.50;79.33
75045;BME280;63614;56.026;35.960;2022-12-18T10:28:49;99427.63;;;-4.45;78.91
75045;BME280;63614;56.026;35.960;2022-12-18T10:31:19;99435.69;;;-4.52;78.44
75045;BME280;63614;56.026;35.960;2022-12-18T10:33:45;99446.94;;;-4.57;78.70
75045;BME280;63614;56.026;35.960;2022-12-18T10:36:11;99437.25;;;-4.50;78.59
75045;BME280;63614;56.026;35.960;2022-12-18T10:38:37;99447.59;;;-4.53;78.67
75045;BME280;63614;56.026;35.960;2022-12-18T10:41:06;99460.47;;;-4.42;78.53
75045;BME280;63614;56.026;35.960;2022-12-18T10:46:36;99452.34;;;-4.63;79.17
75045;BME280;63614;56.026;35.960;2022-12-18T10:49:02;99464.31;;;-4.65;79.44
75045;BME280;63614;56.026;35.960;2022-12-18T10:51:36;99465.44;;;-4.54;79.20
75045;BME280;63614;56.026;35.960;2022-12-18T10:54:21;99479.13;;;-4.57;79.49
75045;BME280;63614;56.026;35.960;2022-12-18T10:56:48;99475.78;;;-4.58;79.50
75045;BME280;63614;56.026;35.960;2022-12-18T10:59:16;99457.91;;;-4.56;79.19
75045;BME280;63614;56.026;35.960;2022-12-18T11:01:56;99486.66;;;-4.56;79.64
75045;BME280;63614;56.026;35.960;2022-12-18T11:04:31;99488.47;;;-4.58;79.51
75045;BME280;63614;56.026;35.960;2022-12-18T11:07:04;99485.19;;;-4.60;79.45
75045;BME280;63614;56.026;35.960;2022-12-18T11:09:35;99490.44;;;-4.63;78.09
75045;BME280;63614;56.026;35.960;2022-12-18T11:12:03;99493.81;;;-4.62;78.25
75045;BME280;63614;56.026;35.960;2022-12-18T11:14:52;99497.16;;;-4.47;77.36
75045;BME280;63614;56.026;35.960;2022-12-18T11:20:04;99494.34;;;-4.57;77.21
75045;BME280;63614;56.026;35.960;2022-12-18T11:22:34;99512.50;;;-4.49;77.01
75045;BME280;63614;56.026;35.960;2022-12-18T11:25:21;99507.66;;;-4.53;77.21
75045;BME280;63614;56.026;35.960;2022-12-18T11:27:49;99505.47;;;-4.60;76.89
75045;BME280;63614;56.026;35.960;2022-12-18T11:30:32;99507.41;;;-4.49;76.65
75045;BME280;63614;56.026;35.960;2022-12-18T11:33:19;99511.22;;;-4.56;76.64
75045;BME280;63614;56.026;35.960;2022-12-18T11:38:24;99519.84;;;-4.44;76.29
75045;BME280;63614;56.026;35.960;2022-12-18T11:41:19;99534.88;;;-4.56;76.55
75045;BME280;63614;56.026;35.960;2022-12-18T11:43:50;99532.16;;;-4.52;76.04
75045;BME280;63614;56.026;35.960;2022-12-18T11:46:38;99535.84;;;-4.58;76.09
75045;BME280;63614;56.026;35.960;2022-12-18T11:49:18;99542.34;;;-4.38;75.80
75045;BME280;63614;56.026;35.960;2022-12-18T11:51:54;99539.16;;;-4.42;75.26
75045;BME280;63614;56.026;35.960;2022-12-18T11:54:21;99544.91;;;-4.68;75.59
75045;BME280;63614;56.026;35.960;2022-12-18T11:56:55;99567.28;;;-4.75;76.21
75045;BME280;63614;56.026;35.960;2022-12-18T12:13:54;99580.06;;;-4.77;75.91
75045;BME280;63614;56.026;35.960;2022-12-18T12:21:49;99605.78;;;-4.99;76.76
75045;BME280;63614;56.026;35.960;2022-12-18T12:27:08;99617.56;;;-4.98;77.16
75045;BME280;63614;56.026;35.960;2022-12-18T12:40:32;99643.25;;;-5.04;77.83
75045;BME280;63614;56.026;35.960;2022-12-18T12:43:10;99636.06;;;-4.96;77.65
75045;BME280;63614;56.026;35.960;2022-12-18T12:45:53;99643.19;;;-4.86;77.47
75045;BME280;63614;56.026;35.960;2022-12-18T12:51:20;99652.66;;;-4.90;77.69
75045;BME280;63614;56.026;35.960;2022-12-18T12:53:47;99665.41;;;-4.92;77.97
75045;BME280;63614;56.026;35.960;2022-12-18T12:56:18;99656.34;;;-4.96;78.31
75045;BME280;63614;56.026;35.960;2022-12-18T13:01:53;99680.72;;;-4.93;77.98
75045;BME280;63614;56.026;35.960;2022-12-18T13:04:43;99681.56;;;-4.93;78.37
75045;BME280;63614;56.026;35.960;2022-12-18T13:07:16;99685.88;;;-4.79;78.05
75045;BME280;63614;56.026;35.960;2022-12-18T13:13:06;99688.31;;;-4.93;75.72
75045;BME280;63614;56.026;35.960;2022-12-18T13:15:45;99698.66;;;-5.12;75.70
75045;BME280;63614;56.026;35.960;2022-12-18T13:20:44;99717.75;;;-5.22;75.72
75045;BME280;63614;56.026;35.960;2022-12-18T13:25:59;99735.66;;;-5.25;76.09
75045;BME280;63614;56.026;35.960;2022-12-18T13:33:46;99750.56;;;-5.19;75.56
75045;BME280;63614;56.026;35.960;2022-12-18T13:41:36;99771.13;;;-5.08;75.05
75045;BME280;63614;56.026;35.960;2022-12-18T13:44:13;99771.34;;;-5.13;74.88
75045;BME280;63614;56.026;35.960;2022-12-18T13:46:50;99767.19;;;-5.14;73.61
75045;BME280;63614;56.026;35.960;2022-12-18T13:51:50;99776.84;;;-5.38;72.54
75045;BME280;63614;56.026;35.960;2022-12-18T13:54:31;99794.00;;;-5.60;73.29
75045;BME280;63614;56.026;35.960;2022-12-18T13:56:59;99787.09;;;-5.74;72.60
75045;BME280;63614;56.026;35.960;2022-12-18T13:59:36;99802.56;;;-5.80;72.52
75045;BME280;63614;56.026;35.960;2022-12-18T14:02:20;99802.66;;;-5.82;72.68
75045;BME280;63614;56.026;35.960;2022-12-18T14:04:47;99816.88;;;-5.79;72.31
75045;BME280;63614;56.026;35.960;2022-12-18T14:07:18;99823.34;;;-5.91;72.47
75045;BME280;63614;56.026;35.960;2022-12-18T14:09:53;99820.59;;;-5.87;72.55
75045;BME280;63614;56.026;35.960;2022-12-18T14:12:24;99833.25;;;-6.04;73.09
75045;BME280;63614;56.026;35.960;2022-12-18T14:17:57;99840.78;;;-6.03;72.51
75045;BME280;63614;56.026;35.960;2022-12-18T14:20:25;99849.41;;;-6.07;72.06
75045;BME280;63614;56.026;35.960;2022-12-18T14:22:53;99856.47;;;-6.13;72.38
75045;BME280;63614;56.026;35.960;2022-12-18T14:25:22;99862.19;;;-6.29;72.72
75045;BME280;63614;56.026;35.960;2022-12-18T14:35:26;99867.81;;;-6.41;71.92
75045;BME280;63614;56.026;35.960;2022-12-18T14:37:52;99863.09;;;-6.49;72.38
75045;BME280;63614;56.026;35.960;2022-12-18T14:40:18;99879.34;;;-6.54;72.41
75045;BME280;63614;56.026;35.960;2022-12-18T14:42:44;99879.09;;;-6.48;71.70
75045;BME280;63614;56.026;35.960;2022-12-18T14:45:35;99887.91;;;-6.57;71.92
75045;BME280;63614;56.026;35.960;2022-12-18T14:48:06;99889.47;;;-6.54;71.31
75045;BME280;63614;56.026;35.960;2022-12-18T14:50:31;99880.28;;;-6.76;71.42
75045;BME280;63614;56.026;35.960;2022-12-18T14:52:57;99892.75;;;-6.92;72.01
75045;BME280;63614;56.026;35.960;2022-12-18T14:55:23;99893.69;;;-6.95;72.16
75045;BME280;63614;56.026;35.960;2022-12-18T14:57:51;99902.25;;;-7.18;72.85
75045;BME280;63614;56.026;35.960;2022-12-18T15:00:21;99899.44;;;-7.12;72.87